RYR542 EINN-EINN

Flight info

Callsign RYR542
Flight time 0h 18m
Altitude 2500
Route VFR CIRCUITS
Aircraft B738/M-SDE3/L

Departure

Time 2026-04-29 19:24
Airport Shannon Airport (EINN)

Arrival

Time 2026-04-29 19:42
Airport Shannon Airport (EINN)
Time Latitude Longitude Altitude Speed Heading
2026-04-29 18:54 52.69362 -8.91956 17 ft 0 kts 185°
2026-04-29 19:13 52.69367 -8.91955 17 ft 2 kts 185°
2026-04-29 19:14 52.69382 -8.91953 17 ft 2 kts 186°
2026-04-29 19:14 52.69397 -8.91947 17 ft 2 kts 205°
2026-04-29 19:14 52.69410 -8.91934 17 ft 2 kts 219°
2026-04-29 19:14 52.69421 -8.91917 17 ft 2 kts 233°
2026-04-29 19:15 52.69428 -8.91896 17 ft 2 kts 248°
2026-04-29 19:15 52.69432 -8.91872 17 ft 2 kts 262°
2026-04-29 19:15 52.69433 -8.91847 17 ft 2 kts 276°
2026-04-29 19:15 52.69431 -8.91833 17 ft 1 kts 285°
2026-04-29 19:16 52.69430 -8.91825 16 ft 0 kts 286°
2026-04-29 19:19 52.69438 -8.91872 17 ft 9 kts 285°
2026-04-29 19:20 52.69462 -8.92037 17 ft 19 kts 284°
2026-04-29 19:20 52.69511 -8.92277 18 ft 20 kts 295°
2026-04-29 19:20 52.69593 -8.92449 19 ft 16 kts 316°
2026-04-29 19:20 52.69683 -8.92593 20 ft 19 kts 315°
2026-04-29 19:21 52.69791 -8.92768 22 ft 23 kts 315°
2026-04-29 19:21 52.69868 -8.92895 23 ft 0 kts 315°
2026-04-29 19:22 52.69870 -8.92897 23 ft 2 kts 315°
2026-04-29 19:23 52.69904 -8.92953 23 ft 11 kts 317°
2026-04-29 19:23 52.69950 -8.92995 23 ft 1 kts 359°
2026-04-29 19:23 52.69986 -8.92930 23 ft 12 kts 51°
2026-04-29 19:23 52.70122 -8.92643 20 ft 76 kts 51°
2026-04-29 19:24 52.70668 -8.91477 104 ft 169 kts 53°
2026-04-29 19:24 52.71355 -8.89953 748 ft 164 kts 57°
2026-04-29 19:24 52.72011 -8.88362 1152 ft 175 kts 59°
2026-04-29 19:24 52.72691 -8.86582 1486 ft 193 kts 60°
2026-04-29 19:25 52.73492 -8.84650 1753 ft 215 kts 56°
2026-04-29 19:25 52.74587 -8.82891 2058 ft 227 kts 39°
2026-04-29 19:25 52.76086 -8.81704 1978 ft 251 kts 21°
2026-04-29 19:25 52.77911 -8.81528 1795 ft 277 kts 355°
2026-04-29 19:26 52.79758 -8.82549 1746 ft 294 kts 336°
2026-04-29 19:26 52.81315 -8.84805 1749 ft 298 kts 310°
2026-04-29 19:26 52.82219 -8.87864 1798 ft 296 kts 285°
2026-04-29 19:26 52.82249 -8.91248 1661 ft 295 kts 252°
2026-04-29 19:27 52.81374 -8.94105 1922 ft 273 kts 230°
2026-04-29 19:27 52.80274 -8.96617 1868 ft 271 kts 229°
2026-04-29 19:27 52.79140 -8.99104 1693 ft 270 kts 228°
2026-04-29 19:27 52.78014 -9.01557 1560 ft 260 kts 229°
2026-04-29 19:28 52.76947 -9.03886 1502 ft 247 kts 230°
2026-04-29 19:28 52.76038 -9.06201 1506 ft 232 kts 232°
2026-04-29 19:28 52.75392 -9.08545 1491 ft 222 kts 261°
2026-04-29 19:28 52.75638 -9.10894 1501 ft 208 kts 306°
2026-04-29 19:29 52.76698 -9.12297 1508 ft 191 kts 353°
2026-04-29 19:29 52.77912 -9.12058 1501 ft 169 kts 40°
2026-04-29 19:29 52.78483 -9.10523 1506 ft 159 kts 87°
2026-04-29 19:29 52.78055 -9.08907 1508 ft 168 kts 135°
2026-04-29 19:30 52.76895 -9.08405 1501 ft 187 kts 183°
2026-04-29 19:30 52.75759 -9.09594 1497 ft 206 kts 231°
2026-04-29 19:30 52.75401 -9.11866 1506 ft 210 kts 279°
2026-04-29 19:30 52.76058 -9.13933 1507 ft 200 kts 326°
2026-04-29 19:31 52.77274 -9.14607 1507 ft 180 kts 15°
2026-04-29 19:31 52.78225 -9.13589 1506 ft 162 kts 69°
2026-04-29 19:31 52.78150 -9.11852 1499 ft 162 kts 121°
2026-04-29 19:31 52.77117 -9.11013 1503 ft 184 kts 175°
2026-04-29 19:32 52.75968 -9.12018 1512 ft 197 kts 229°
2026-04-29 19:32 52.75713 -9.14199 1518 ft 201 kts 287°
2026-04-29 19:32 52.76533 -9.15851 1505 ft 182 kts 345°
2026-04-29 19:32 52.77659 -9.15739 1499 ft 157 kts 42°
2026-04-29 19:33 52.78047 -9.14275 1517 ft 147 kts 97°
2026-04-29 19:33 52.77367 -9.13011 1493 ft 164 kts 155°
2026-04-29 19:33 52.76174 -9.13047 1505 ft 180 kts 187°
2026-04-29 19:33 52.75053 -9.13952 1712 ft 179 kts 202°
2026-04-29 19:34 52.73949 -9.15080 1844 ft 193 kts 204°
2026-04-29 19:34 52.72806 -9.16066 1976 ft 184 kts 198°
2026-04-29 19:34 52.71692 -9.17063 2109 ft 181 kts 200°
2026-04-29 19:34 52.70625 -9.18094 2065 ft 173 kts 204°
2026-04-29 19:35 52.69784 -9.19544 1716 ft 184 kts 239°
2026-04-29 19:35 52.69701 -9.21552 1486 ft 174 kts 295°
2026-04-29 19:35 52.70494 -9.22705 1467 ft 143 kts
2026-04-29 19:35 52.71247 -9.22076 1545 ft 122 kts 69°
2026-04-29 19:36 52.71041 -9.20823 1508 ft 131 kts 132°
2026-04-29 19:36 52.70218 -9.20138 1648 ft 130 kts 145°
2026-04-29 19:36 52.69362 -9.19453 1704 ft 138 kts 142°
2026-04-29 19:36 52.68544 -9.18688 1737 ft 134 kts 140°
2026-04-29 19:37 52.67777 -9.17856 1558 ft 131 kts 136°
2026-04-29 19:37 52.67278 -9.17284 1420 ft 130 kts 136°
2026-04-29 19:37 52.66322 -9.16063 1274 ft 132 kts 134°
2026-04-29 19:37 52.65601 -9.15135 1238 ft 131 kts 131°
2026-04-29 19:38 52.65073 -9.14008 1358 ft 123 kts 111°
2026-04-29 19:38 52.64873 -9.12650 1422 ft 121 kts 93°
2026-04-29 19:38 52.64828 -9.11277 1497 ft 118 kts 93°
2026-04-29 19:38 52.64741 -9.09921 1715 ft 119 kts 95°
2026-04-29 19:39 52.64654 -9.08562 1794 ft 118 kts 94°
2026-04-29 19:39 52.64625 -9.07198 1947 ft 121 kts 88°
2026-04-29 19:39 52.64688 -9.05885 1946 ft 110 kts 85°
2026-04-29 19:39 52.64834 -9.04664 1864 ft 106 kts 78°
2026-04-29 19:40 52.65086 -9.03558 1799 ft 103 kts 69°
2026-04-29 19:40 52.65449 -9.02550 1779 ft 101 kts 60°
2026-04-29 19:40 52.65904 -9.01651 1762 ft 103 kts 58°
2026-04-29 19:40 52.66389 -9.00690 1609 ft 112 kts 58°
2026-04-29 19:41 52.66879 -8.99666 1349 ft 121 kts 58°
2026-04-29 19:41 52.67380 -8.98535 1017 ft 124 kts 59°
2026-04-29 19:41 52.67902 -8.97412 768 ft 122 kts 53°
2026-04-29 19:41 52.68429 -8.96291 496 ft 122 kts 56°
2026-04-29 19:42 52.68927 -8.95195 292 ft 120 kts 53°
2026-04-29 19:42 52.69274 -8.94454 130 ft 123 kts 53°
2026-04-29 19:42 52.69907 -8.93101 25 ft 81 kts 52°
2026-04-29 19:42 52.70118 -8.92649 20 ft 46 kts 52°
2026-04-29 19:43 52.70372 -8.92105 19 ft 72 kts 52°
2026-04-29 19:43 52.70679 -8.91453 19 ft 46 kts 51°
2026-04-29 19:43 52.70767 -8.91226 19 ft 14 kts 101°
2026-04-29 19:43 52.70671 -8.91155 19 ft 18 kts 168°